Stations météo

réclame
Mon MeteoGroup
Mannheim City Airport, Allemagne (10730): Température de l'air & dewpoint: 18.01.2018 10:00:00 - 24.01.2018 10:00:00 (CET)Mannheim City Airport, Allemagne (10730): Vitesse du vent: 18.01.2018 10:00:00 - 24.01.2018 10:00:00 (CET)Mannheim City Airport, Allemagne (10730): Direction du vent: 18.01.2018 10:00:00 - 24.01.2018 10:00:00 (CET)Mannheim City Airport, Allemagne (10730): visibility: 18.01.2018 10:00:00 - 24.01.2018 10:00:00 (CET)
Date & Time tt [°C] td [°C] ff [km/h] ff [knt] dd vv [km]
24.01.2018 10:00:00 9,0 8,0 15 8 S 10
24.01.2018 09:00:00 9,0 8,0 16 9 S 10
24.01.2018 08:00:00 8,0 7,0 16 9 SSW 10
24.01.2018 07:00:00 8,0 7,0 18 10 SSW 10
24.01.2018 06:00:00 8,0 7,0 16 9 SSW 10
24.01.2018 05:00:00 - - - - - -
24.01.2018 04:00:00 - - - - - -
24.01.2018 03:00:00 - - - - - -
24.01.2018 02:00:00 - - - - - -
24.01.2018 01:00:00 - - - - - -
24.01.2018 00:00:00 8,0 4,0 13 7 S 10
23.01.2018 23:00:00 8,0 4,0 11 6 S 10
23.01.2018 22:00:00 8,0 4,0 15 8 S 10
23.01.2018 21:00:00 8,0 5,0 11 6 S 10
23.01.2018 20:00:00 8,0 5,0 13 7 S 10
23.01.2018 19:00:00 8,0 5,0 11 6 S 10
23.01.2018 18:00:00 8,0 5,0 11 6 S 10
23.01.2018 17:00:00 8,0 5,0 11 6 S 10
23.01.2018 16:00:00 9,0 5,0 13 7 S 10
23.01.2018 15:00:00 9,0 5,0 13 7 SSW 10
23.01.2018 14:00:00 8,0 6,0 13 7 SSW 10
23.01.2018 13:00:00 8,0 6,0 11 6 SSW 10
23.01.2018 12:00:00 7,0 6,0 15 8 SSW 10
23.01.2018 11:00:00 8,0 6,0 8 4 SW 10
23.01.2018 10:00:00 7,0 6,0 8 4 SW 10
23.01.2018 09:00:00 7,0 5,0 9 5 SW 10
23.01.2018 08:00:00 7,0 5,0 11 6 WSW 10
23.01.2018 07:00:00 7,0 4,0 9 5 WSW 10
23.01.2018 06:00:00 7,0 4,0 9 5 WSW 10
23.01.2018 05:00:00 - - - - - -
23.01.2018 04:00:00 - - - - - -
23.01.2018 03:00:00 - - - - - -
23.01.2018 02:00:00 - - - - - -
23.01.2018 01:00:00 - - - - - -
23.01.2018 00:00:00 - - - - - -
22.01.2018 23:00:00 - - - - - -
22.01.2018 22:00:00 - - - - - -
22.01.2018 21:00:00 7,0 7,0 9 5 W 10
22.01.2018 20:00:00 6,0 6,0 5 3 - 10
22.01.2018 19:00:00 6,0 6,0 4 2 - 10
22.01.2018 18:00:00 7,0 7,0 4 2 - 6
22.01.2018 17:00:00 7,0 7,0 8 4 N 3,9
22.01.2018 16:00:00 8,0 8,0 5 3 N 7
22.01.2018 15:00:00 8,0 8,0 5 3 - 10
22.01.2018 14:00:00 7,0 7,0 2 1 ENE 10
22.01.2018 13:00:00 6,0 6,0 8 4 E 6
22.01.2018 12:00:00 5,0 5,0 4 2 - 3,5
22.01.2018 11:00:00 4,0 4,0 5 3 - 2,0
22.01.2018 10:00:00 3,0 3,0 5 3 - 4,0
22.01.2018 09:00:00 3,0 3,0 5 3 - 2,6
22.01.2018 08:00:00 3,0 3,0 8 4 S 3,3
22.01.2018 07:00:00 2,0 2,0 5 3 - 5
22.01.2018 06:00:00 2,0 2,0 5 3 - 10
22.01.2018 05:00:00 - - - - - -
22.01.2018 04:00:00 - - - - - -
22.01.2018 03:00:00 - - - - - -
22.01.2018 02:00:00 - - - - - -
22.01.2018 01:00:00 - - - - - -
22.01.2018 00:00:00 - - - - - -
21.01.2018 23:00:00 - - - - - -
21.01.2018 22:00:00 - - - - - -
21.01.2018 21:00:00 2,0 0,0 5 3 - 10
21.01.2018 20:00:00 2,0 0,0 5 3 SSE 10
21.01.2018 19:00:00 3,0 0,0 5 3 SSE 10
21.01.2018 18:00:00 3,0 -1,0 5 3 WSW 10
21.01.2018 17:00:00 4,0 -2,0 8 4 W 10
21.01.2018 16:00:00 5,0 -1,0 11 6 W 10
21.01.2018 15:00:00 5,0 -1,0 13 7 WSW 10
21.01.2018 14:00:00 5,0 -1,0 16 9 W 10
21.01.2018 13:00:00 5,0 -1,0 13 7 W 10
21.01.2018 12:00:00 4,0 0,0 11 6 WNW 10
21.01.2018 11:00:00 4,0 -1,0 18 10 NW 10
21.01.2018 10:00:00 3,0 0,0 15 8 NW 10
21.01.2018 09:00:00 3,0 0,0 18 10 NW 10
21.01.2018 08:00:00 4,0 1,0 16 9 WNW 10
21.01.2018 07:00:00 - - - - - -
21.01.2018 06:00:00 - - - - - -
21.01.2018 05:00:00 - - - - - -
21.01.2018 04:00:00 - - - - - -
21.01.2018 03:00:00 - - - - - -
21.01.2018 02:00:00 - - - - - -
21.01.2018 01:00:00 - - - - - -
21.01.2018 00:00:00 - - - - - -
20.01.2018 23:00:00 - - - - - -
20.01.2018 22:00:00 - - - - - -
20.01.2018 21:00:00 2,0 2,0 8 4 SSW 10
20.01.2018 20:00:00 2,0 2,0 8 4 S 10
20.01.2018 19:00:00 2,0 2,0 8 4 SSE 10
20.01.2018 18:00:00 3,0 3,0 13 7 SSE 10
20.01.2018 17:00:00 3,0 3,0 11 6 SE 10
20.01.2018 16:00:00 3,0 3,0 15 8 SSE 10
20.01.2018 15:00:00 4,0 4,0 11 6 SSE 10
20.01.2018 14:00:00 4,0 4,0 13 7 S 10
20.01.2018 13:00:00 4,0 4,0 15 8 S 10
20.01.2018 12:00:00 4,0 3,0 15 8 SSW 10
20.01.2018 11:00:00 5,0 3,0 16 9 SSW 10
20.01.2018 10:00:00 4,0 3,0 15 8 SSW 10
20.01.2018 09:00:00 3,0 3,0 13 7 SSW 10
20.01.2018 08:00:00 3,0 3,0 11 6 SSW 10
20.01.2018 07:00:00 - - - - - -
20.01.2018 06:00:00 - - - - - -
20.01.2018 05:00:00 - - - - - -
20.01.2018 04:00:00 - - - - - -
20.01.2018 03:00:00 - - - - - -
20.01.2018 02:00:00 - - - - - -
20.01.2018 01:00:00 - - - - - -
20.01.2018 00:00:00 - - - - - -
19.01.2018 23:00:00 - - - - - -
19.01.2018 22:00:00 - - - - - -
19.01.2018 21:00:00 - - - - - -
19.01.2018 20:00:00 4,0 3,0 8 4 SSW 10
19.01.2018 19:00:00 4,0 3,0 9 5 S 10
19.01.2018 18:00:00 5,0 3,0 9 5 S 10
19.01.2018 17:00:00 4,0 3,0 5 3 - 10
19.01.2018 16:00:00 5,0 3,0 4 2 - 10
19.01.2018 15:00:00 4,0 3,0 4 2 - 10
19.01.2018 14:00:00 7,0 0,0 13 7 SW 10
19.01.2018 13:00:00 6,0 -1,0 16 9 W 10
19.01.2018 12:00:00 4,0 1,0 16 9 W 10
19.01.2018 11:00:00 6,0 -1,0 15 8 WSW 10
19.01.2018 10:00:00 5,0 0,0 13 7 WSW 10
19.01.2018 09:00:00 4,0 1,0 11 6 SW 10
19.01.2018 08:00:00 4,0 1,0 11 6 WSW 10
19.01.2018 07:00:00 4,0 2,0 9 5 SW 10
19.01.2018 06:00:00 4,0 1,0 13 7 WSW 10
19.01.2018 05:00:00 - - - - - -
19.01.2018 04:00:00 - - - - - -
19.01.2018 03:00:00 - - - - - -
19.01.2018 02:00:00 - - - - - -
19.01.2018 01:00:00 - - - - - -
19.01.2018 00:00:00 - - - - - -
18.01.2018 23:00:00 - - - - - -
18.01.2018 22:00:00 - - - - - -
18.01.2018 21:00:00 - - - - - -
18.01.2018 20:00:00 7,0 0,0 9 5 WSW 10
18.01.2018 19:00:00 8,0 -1,0 11 6 W 10
18.01.2018 18:00:00 8,0 0,0 9 5 W 10
18.01.2018 17:00:00 10,0 1,0 18 10 W 10
18.01.2018 16:00:00 11,0 1,0 24 13 W 10
18.01.2018 15:00:00 10,0 7,0 13 7 SW 10
18.01.2018 14:00:00 - - - - - -
18.01.2018 13:00:00 10,0 6,0 28 15 SW 10
18.01.2018 12:00:00 8,0 6,0 16 9 SSW 10
18.01.2018 11:00:00 7,0 5,0 28 15 S 10
18.01.2018 10:00:00 6,0 4,0 35 19 SSW 10

tt = Température de l'air
td = dewpoint
ff = Vitesse du vent
dd = Direction du vent
vv = visibility

stations d'obs. à proximité